• Join FlightAware (Why Join?)
  • Login
  • US Flag 
11:09PM EDT


 

Airport Tracker/Info


-or-


 

Live Flight TrackerFlight Track Log ✈ EJA922 ✈ 01-Apr-2014 ✈ KSFO - KBFI

Flight Track Log - Related Links

Times and Time Zones

All times are in EDT time to prevent confusion due to time zone crossing. See the EJA922 flight status page for this flight to view local times or setup timezone preferences in your user account.

Time Position Orientation Groundspeed Altitude Reporting Facility
EDT Latitude Longitude Course Direction KTS MPH feet Rate Location/Type
04:10PM 37.6167 -122.3667 107° East 167 192 800  Level Northern Cal TRACON
04:11PM 37.6000 -122.3000 107° East 227 261 4,600 3,600 Climbing Northern Cal TRACON
04:13PM 37.7308 -122.2236 25° Northeast 316 364 12,300 3,420 Climbing Oakland Center
04:14PM 37.8344 -122.2247 360° North 369 425 15,600 3,060 Climbing Oakland Center
04:15PM 37.9414 -122.2292 358° North 384 442 18,600 2,700 Climbing Oakland Center
04:16PM 38.0731 -122.2347 358° North 396 456 21,200 2,160 Climbing Oakland Center
04:17PM 38.1847 -122.2392 358° North 401 461 23,100 1,740 Climbing Oakland Center
04:18PM 38.3000 -122.2444 358° North 415 478 24,800 900 Climbing Oakland Center
04:19PM 38.4211 -122.2486 358° North 433 498 25,000 60 Climbing Oakland Center
04:20PM 38.5469 -122.2558 357° North 447 514 25,000  Level Oakland Center
04:21PM 38.6761 -122.2614 358° North 459 528 25,000  Level Oakland Center
04:22PM 38.8083 -122.2639 359° North 467 537 25,000  Level Oakland Center
04:23PM 38.9394 -122.2722 357° North 469 540 25,000  Level Oakland Center
04:24PM 39.0722 -122.2775 358° North 471 542 25,000 300 Level Oakland Center
04:26PM 39.2053 -122.2825 358° North 472 543 25,700 1,920 Climbing Oakland Center
04:27PM 39.3567 -122.2889 358° North 452 520 29,000 2,580 Climbing Oakland Center
04:28PM 39.4861 -122.2947 358° North 456 525 31,000 1,980 Climbing Oakland Center
04:29PM 39.6169 -122.3019 358° North 467 537 33,100 1,440 Climbing Oakland Center
04:30PM 39.7522 -122.3069 358° North 480 552 34,000 420 Climbing Oakland Center
04:31PM 39.8908 -122.3128 358° North 492 566 34,000  Level Oakland Center
04:32PM 40.0314 -122.3194 358° North 499 574 34,000  Level Oakland Center
04:33PM 40.1869 -122.3236 359° North 512 589 34,000  Level Oakland Center
04:34PM 40.3358 -122.3311 358° North 527 606 34,000  Level Oakland Center
04:35PM 40.4836 -122.3386 358° North 528 608 34,000  Level Oakland Center
04:36PM 40.6319 -122.3431 359° North 535 616 34,000  Level Oakland Center
04:37PM 40.7794 -122.3483 358° North 534 615 34,000  Level Oakland Center
04:38PM 40.9267 -122.3539 358° North 532 612 34,000  Level Oakland Center
04:39PM 41.0736 -122.3600 358° North 531 611 34,000  Level Oakland Center
04:40PM 41.2222 -122.3725 356° North 533 613 34,000  Level Oakland Center
04:41PM 41.3808 -122.3753 359° North 529 609 34,000  Level Oakland Center
04:41PM 41.4725 -122.3847 356° North 530 610 34,000  Level Seattle Center
04:42PM 41.6192 -122.3903 358° North 529 609 34,000  Level Seattle Center
04:44PM 41.7669 -122.3928 359° North 528 608 34,000  Level Seattle Center
04:45PM 41.9131 -122.4011 358° North 529 609 34,000  Level Seattle Center
04:46PM 42.0611 -122.4064 358° North 536 617 34,000  Level Seattle Center
04:47PM 42.2083 -122.4147 358° North 537 618 34,000  Level Seattle Center
04:48PM 42.3542 -122.4194 359° North 522 601 34,000  Level Seattle Center
04:49PM 42.5000 -122.4272 358° North 524 603 34,000  Level Seattle Center
04:50PM 42.6731 -122.4347 358° North 518 596 34,000  Level Seattle Center
04:51PM 42.8156 -122.4422 358° North 522 601 34,000  Level Seattle Center
04:52PM 42.9586 -122.4511 357° North 518 596 34,000  Level Seattle Center
04:53PM 43.1058 -122.4561 359° North 529 609 34,000  Level Seattle Center
04:54PM 43.2492 -122.4647 357° North 522 601 34,000  Level Seattle Center
04:55PM 43.3967 -122.4731 358° North 528 608 34,000  Level Seattle Center
04:56PM 43.5411 -122.4808 358° North 525 604 34,000  Level Seattle Center
04:57PM 43.6850 -122.4881 358° North 524 603 34,000  Level Seattle Center
04:58PM 43.8303 -122.4942 358° North 525 604 34,000  Level Seattle Center
04:59PM 43.9747 -122.5006 358° North 526 605 34,000  Level Seattle Center
05:00PM 44.1186 -122.5072 358° North 524 603 34,000  Level Seattle Center
05:01PM 44.2919 -122.5172 358° North 524 603 34,000  Level Seattle Center
05:02PM 44.4353 -122.5247 358° North 523 602 34,000  Level Seattle Center
05:03PM 44.5789 -122.5331 358° North 523 602 34,000  Level Seattle Center
05:04PM 44.7233 -122.5394 358° North 522 601 34,000  Level Seattle Center
05:05PM 44.8669 -122.5453 358° North 520 598 34,000  Level Seattle Center
05:06PM 44.9978 -122.5536 357° North 520 598 34,000  Level Seattle Center
05:07PM 45.1692 -122.5614 358° North 519 597 34,000  Level Seattle Center
05:08PM 45.3117 -122.5672 358° North 518 596 34,000  Level Seattle Center
05:09PM 45.4544 -122.5753 358° North 518 596 34,000  Level Seattle Center
05:10PM 45.5972 -122.5828 358° North 516 594 34,000  Level Seattle Center
05:11PM 45.7397 -122.5919 357° North 516 594 34,000 -480 Level Seattle Center
05:12PM 45.8806 -122.6228 351° North 516 594 33,100 -1,740 Descending Seattle Center
05:13PM 46.0172 -122.6589 350° North 505 581 30,500 -2,580 Descending Seattle Center
05:14PM 46.1508 -122.6947 349° North 498 573 27,900 -2,760 Descending Seattle Center
05:15PM 46.2997 -122.7300 351° North 487 560 25,000 -2,640 Descending Seattle Center
05:16PM 46.4264 -122.7619 350° North 469 540 22,600 -2,460 Descending Seattle Center
05:17PM 46.5494 -122.7939 350° North 455 524 20,000 -2,820 Descending Seattle Center
05:18PM 46.6694 -122.8242 350° North 444 511 16,900 -3,120 Descending Seattle Center
05:19PM 46.7819 -122.8531 350° North 410 472 13,900 -2,520 Descending Seattle Center
05:20PM 46.8939 -122.8839 349° North 372 428 12,000 -1,440 Descending Seattle Center
05:21PM 46.9578 -122.8206 34° Northeast 274 315 11,000 -960 Descending Seattle Center
05:22PM 46.9983 -122.7072 62° Northeast 288 331 10,000 -1,140 Descending Seattle Center
05:23PM 47.0375 -122.6089 60° Northeast 285 328 8,600 -1,260 Descending Seattle Center
05:24PM 47.0833 -122.5197 53° Northeast 276 318 7,500 -1,260 Descending Seattle Center
05:25PM 47.1311 -122.4392 49° Northeast 266 306 6,100 -1,320 Descending Seattle Center
05:26PM 47.1686 -122.3719 51° Northeast 257 296 5,100 -1,140 Descending Seattle Center
05:26PM 47.1806 -122.3556 43° Northeast 258 297 5,000 -900 Descending Seattle Center
05:27PM 47.2189 -122.3247 29° Northeast 202 232 4,200 -1,200 Descending Seattle Center
05:27PM 47.2303 -122.3142 32° Northeast 204 235 3,800 -1,200 Descending Seattle Center
05:28PM 47.2717 -122.2794 30° Northeast 201 231 3,000 -840 Descending Seattle Center
05:28PM 47.2797 -122.2725 30° Northeast 205 236 3,000  Level Seattle Center
05:29PM 47.3233 -122.2378 28° Northeast 209 241 3,000  Level Seattle Center
05:29PM 47.3344 -122.2275 32° Northeast 207 238 3,000  Level Seattle Center
05:30PM 47.3725 -122.2042 23° Northeast 199 229 3,000  Level Seattle Center
05:30PM 47.3847 -122.1983 18° North 197 227 3,000 -480 Level Seattle Center
05:31PM 47.4128 -122.2047 351° North 158 182 2,600 -720 Descending Seattle Center
05:31PM 47.4253 -122.2153 330° Northwest 161 185 2,300 -900 Descending Seattle Center
05:32PM 47.4525 -122.2386 330° Northwest 157 181 1,700 -900 Descending Seattle Center
05:32PM 47.4628 -122.2472 330° Northwest 157 181 1,400 -840 Descending Seattle Center
05:33PM 47.4861 -122.2658 332° Northwest 115 132 800 -840 Descending Seattle Center
05:33PM 47.4928 -122.2728 325° Northwest 122 140 600 -660 Descending Seattle Center
05:34PM 47.5117 -122.2878 332° Northwest 132 152 200 -540 Descending Seattle Center
05:34PM 47.5175 -122.2925 331° Northwest 122 140 100 -360 Descending Seattle Center
05:36PM 47.5167 -122.3000 329° Northwest  Level FlightAware Approximate
05:43PM 47.5300 -122.3020 354° North  Level Estimated